sensor_id;sensor_type;location;lat;lon;timestamp;P1;durP1;ratioP1;P2;durP2;ratioP2
59024;SDS011;44806;48.008;13.666;2024-01-30T00:02:00;20.75;;;8.93;;
59024;SDS011;44806;48.008;13.666;2024-01-30T00:04:27;16.80;;;8.25;;
59024;SDS011;44806;48.008;13.666;2024-01-30T00:06:53;18.92;;;8.65;;
59024;SDS011;44806;48.008;13.666;2024-01-30T00:09:20;18.45;;;8.18;;
59024;SDS011;44806;48.008;13.666;2024-01-30T00:11:48;15.65;;;6.75;;
59024;SDS011;44806;48.008;13.666;2024-01-30T00:14:16;21.58;;;9.45;;
59024;SDS011;44806;48.008;13.666;2024-01-30T00:16:43;20.33;;;7.72;;
59024;SDS011;44806;48.008;13.666;2024-01-30T00:19:10;24.63;;;10.15;;
59024;SDS011;44806;48.008;13.666;2024-01-30T00:21:37;17.13;;;8.10;;
59024;SDS011;44806;48.008;13.666;2024-01-30T00:24:04;20.58;;;7.97;;
59024;SDS011;44806;48.008;13.666;2024-01-30T00:26:31;14.95;;;7.57;;
59024;SDS011;44806;48.008;13.666;2024-01-30T00:29:00;20.58;;;8.75;;
59024;SDS011;44806;48.008;13.666;2024-01-30T00:31:27;16.40;;;7.80;;
59024;SDS011;44806;48.008;13.666;2024-01-30T00:33:54;22.65;;;7.90;;
59024;SDS011;44806;48.008;13.666;2024-01-30T00:36:21;18.10;;;8.20;;
59024;SDS011;44806;48.008;13.666;2024-01-30T00:38:48;24.05;;;10.88;;
59024;SDS011;44806;48.008;13.666;2024-01-30T00:41:17;22.27;;;8.18;;
59024;SDS011;44806;48.008;13.666;2024-01-30T00:43:44;19.98;;;10.00;;
59024;SDS011;44806;48.008;13.666;2024-01-30T00:46:12;19.08;;;8.63;;
59024;SDS011;44806;48.008;13.666;2024-01-30T00:48:39;18.98;;;8.98;;
59024;SDS011;44806;48.008;13.666;2024-01-30T00:51:06;18.40;;;8.02;;
59024;SDS011;44806;48.008;13.666;2024-01-30T00:53:33;17.77;;;8.95;;
59024;SDS011;44806;48.008;13.666;2024-01-30T00:56:00;18.00;;;8.70;;
59024;SDS011;44806;48.008;13.666;2024-01-30T00:58:27;24.67;;;9.35;;
59024;SDS011;44806;48.008;13.666;2024-01-30T01:00:54;24.10;;;9.32;;
59024;SDS011;44806;48.008;13.666;2024-01-30T01:03:22;20.75;;;10.55;;
59024;SDS011;44806;48.008;13.666;2024-01-30T01:05:48;23.98;;;10.73;;
59024;SDS011;44806;48.008;13.666;2024-01-30T01:08:15;18.73;;;9.35;;
59024;SDS011;44806;48.008;13.666;2024-01-30T01:10:43;22.90;;;10.52;;
59024;SDS011;44806;48.008;13.666;2024-01-30T01:13:09;27.27;;;9.60;;
59024;SDS011;44806;48.008;13.666;2024-01-30T01:15:35;19.50;;;9.52;;
59024;SDS011;44806;48.008;13.666;2024-01-30T01:18:03;22.20;;;10.00;;
59024;SDS011;44806;48.008;13.666;2024-01-30T01:20:31;26.83;;;11.82;;
59024;SDS011;44806;48.008;13.666;2024-01-30T01:22:58;24.13;;;11.40;;
59024;SDS011;44806;48.008;13.666;2024-01-30T01:25:25;21.00;;;10.18;;
59024;SDS011;44806;48.008;13.666;2024-01-30T01:27:52;21.50;;;10.40;;
59024;SDS011;44806;48.008;13.666;2024-01-30T01:30:19;26.88;;;10.77;;
59024;SDS011;44806;48.008;13.666;2024-01-30T01:32:47;24.60;;;11.18;;
59024;SDS011;44806;48.008;13.666;2024-01-30T01:35:20;25.23;;;11.75;;
59024;SDS011;44806;48.008;13.666;2024-01-30T01:37:49;24.27;;;11.05;;
59024;SDS011;44806;48.008;13.666;2024-01-30T01:40:20;25.63;;;11.20;;
59024;SDS011;44806;48.008;13.666;2024-01-30T01:42:49;25.20;;;10.52;;
59024;SDS011;44806;48.008;13.666;2024-01-30T01:45:17;24.30;;;11.05;;
59024;SDS011;44806;48.008;13.666;2024-01-30T01:47:45;24.55;;;11.65;;
59024;SDS011;44806;48.008;13.666;2024-01-30T01:50:15;23.70;;;10.43;;
59024;SDS011;44806;48.008;13.666;2024-01-30T01:52:43;24.30;;;11.10;;
59024;SDS011;44806;48.008;13.666;2024-01-30T01:55:12;19.48;;;10.10;;
59024;SDS011;44806;48.008;13.666;2024-01-30T01:57:40;19.92;;;9.73;;
59024;SDS011;44806;48.008;13.666;2024-01-30T02:00:08;24.05;;;9.35;;
59024;SDS011;44806;48.008;13.666;2024-01-30T02:02:36;21.77;;;9.75;;
59024;SDS011;44806;48.008;13.666;2024-01-30T02:05:03;23.23;;;10.45;;
59024;SDS011;44806;48.008;13.666;2024-01-30T02:07:30;22.48;;;9.63;;
59024;SDS011;44806;48.008;13.666;2024-01-30T02:09:57;21.42;;;11.43;;
59024;SDS011;44806;48.008;13.666;2024-01-30T02:12:26;17.15;;;9.27;;
59024;SDS011;44806;48.008;13.666;2024-01-30T02:14:53;22.48;;;10.15;;
59024;SDS011;44806;48.008;13.666;2024-01-30T02:17:20;24.15;;;11.77;;
59024;SDS011;44806;48.008;13.666;2024-01-30T02:19:48;24.73;;;10.75;;
59024;SDS011;44806;48.008;13.666;2024-01-30T02:22:16;25.77;;;12.15;;
59024;SDS011;44806;48.008;13.666;2024-01-30T02:24:44;21.98;;;9.77;;
59024;SDS011;44806;48.008;13.666;2024-01-30T02:27:11;22.05;;;11.18;;
59024;SDS011;44806;48.008;13.666;2024-01-30T02:29:38;20.55;;;10.57;;
59024;SDS011;44806;48.008;13.666;2024-01-30T02:32:05;22.90;;;11.40;;
59024;SDS011;44806;48.008;13.666;2024-01-30T02:34:32;25.80;;;11.05;;
59024;SDS011;44806;48.008;13.666;2024-01-30T02:36:59;22.90;;;9.77;;
59024;SDS011;44806;48.008;13.666;2024-01-30T02:39:28;27.40;;;12.05;;
59024;SDS011;44806;48.008;13.666;2024-01-30T02:41:55;21.52;;;10.23;;
59024;SDS011;44806;48.008;13.666;2024-01-30T02:44:22;28.15;;;11.20;;
59024;SDS011;44806;48.008;13.666;2024-01-30T02:46:49;31.17;;;13.05;;
59024;SDS011;44806;48.008;13.666;2024-01-30T02:49:15;33.50;;;13.10;;
59024;SDS011;44806;48.008;13.666;2024-01-30T02:51:42;25.70;;;12.40;;
59024;SDS011;44806;48.008;13.666;2024-01-30T02:54:09;32.05;;;10.68;;
59024;SDS011;44806;48.008;13.666;2024-01-30T02:56:38;26.60;;;9.93;;
59024;SDS011;44806;48.008;13.666;2024-01-30T02:59:04;28.55;;;13.73;;
59024;SDS011;44806;48.008;13.666;2024-01-30T03:01:31;28.33;;;10.20;;
59024;SDS011;44806;48.008;13.666;2024-01-30T03:03:58;28.60;;;10.73;;
59024;SDS011;44806;48.008;13.666;2024-01-30T03:06:25;38.88;;;14.73;;
59024;SDS011;44806;48.008;13.666;2024-01-30T03:08:52;49.97;;;16.02;;
59024;SDS011;44806;48.008;13.666;2024-01-30T03:11:19;89.03;;;17.80;;
59024;SDS011;44806;48.008;13.666;2024-01-30T03:13:47;66.65;;;17.63;;
59024;SDS011;44806;48.008;13.666;2024-01-30T03:16:14;48.08;;;15.65;;
59024;SDS011;44806;48.008;13.666;2024-01-30T03:18:41;108.45;;;18.08;;
59024;SDS011;44806;48.008;13.666;2024-01-30T03:21:08;86.32;;;17.23;;
59024;SDS011;44806;48.008;13.666;2024-01-30T03:23:35;54.88;;;17.83;;
59024;SDS011;44806;48.008;13.666;2024-01-30T03:26:02;97.80;;;17.30;;
59024;SDS011;44806;48.008;13.666;2024-01-30T03:28:31;69.35;;;15.32;;
59024;SDS011;44806;48.008;13.666;2024-01-30T03:31:00;71.00;;;18.17;;
59024;SDS011;44806;48.008;13.666;2024-01-30T03:33:27;119.18;;;18.42;;
59024;SDS011;44806;48.008;13.666;2024-01-30T03:35:54;50.75;;;18.02;;
59024;SDS011;44806;48.008;13.666;2024-01-30T03:38:21;106.75;;;18.35;;
59024;SDS011;44806;48.008;13.666;2024-01-30T03:40:48;62.80;;;18.15;;
59024;SDS011;44806;48.008;13.666;2024-01-30T03:43:15;65.00;;;17.33;;
59024;SDS011;44806;48.008;13.666;2024-01-30T03:45:42;53.33;;;16.80;;
59024;SDS011;44806;48.008;13.666;2024-01-30T03:48:10;87.53;;;18.77;;
59024;SDS011;44806;48.008;13.666;2024-01-30T03:50:37;34.40;;;16.77;;
59024;SDS011;44806;48.008;13.666;2024-01-30T03:53:04;34.78;;;15.57;;
59024;SDS011;44806;48.008;13.666;2024-01-30T03:55:30;39.03;;;16.20;;
59024;SDS011;44806;48.008;13.666;2024-01-30T03:57:57;42.80;;;18.35;;
59024;SDS011;44806;48.008;13.666;2024-01-30T04:00:24;88.47;;;16.33;;
59024;SDS011;44806;48.008;13.666;2024-01-30T04:02:51;52.58;;;14.20;;
59024;SDS011;44806;48.008;13.666;2024-01-30T04:05:19;82.65;;;15.48;;
59024;SDS011;44806;48.008;13.666;2024-01-30T04:07:46;55.83;;;14.32;;
59024;SDS011;44806;48.008;13.666;2024-01-30T04:10:13;91.28;;;20.00;;
59024;SDS011;44806;48.008;13.666;2024-01-30T04:12:40;49.58;;;15.50;;
59024;SDS011;44806;48.008;13.666;2024-01-30T04:15:07;78.18;;;16.38;;
59024;SDS011;44806;48.008;13.666;2024-01-30T04:17:35;61.22;;;15.98;;
59024;SDS011;44806;48.008;13.666;2024-01-30T04:20:01;62.65;;;18.88;;
59024;SDS011;44806;48.008;13.666;2024-01-30T04:22:30;73.85;;;18.50;;
59024;SDS011;44806;48.008;13.666;2024-01-30T04:24:57;46.25;;;17.80;;
59024;SDS011;44806;48.008;13.666;2024-01-30T04:27:24;34.13;;;15.98;;
59024;SDS011;44806;48.008;13.666;2024-01-30T04:29:51;31.38;;;14.07;;
59024;SDS011;44806;48.008;13.666;2024-01-30T04:32:18;92.13;;;16.55;;
59024;SDS011;44806;48.008;13.666;2024-01-30T04:34:44;37.30;;;16.90;;
59024;SDS011;44806;48.008;13.666;2024-01-30T04:37:11;34.70;;;14.65;;
59024;SDS011;44806;48.008;13.666;2024-01-30T04:39:39;40.50;;;14.50;;
59024;SDS011;44806;48.008;13.666;2024-01-30T04:42:06;50.70;;;16.35;;
59024;SDS011;44806;48.008;13.666;2024-01-30T04:44:33;91.38;;;18.05;;
59024;SDS011;44806;48.008;13.666;2024-01-30T04:47:00;31.13;;;14.32;;
59024;SDS011;44806;48.008;13.666;2024-01-30T04:49:27;67.20;;;17.65;;
59024;SDS011;44806;48.008;13.666;2024-01-30T04:51:54;43.60;;;17.10;;
59024;SDS011;44806;48.008;13.666;2024-01-30T04:54:22;87.35;;;14.45;;
59024;SDS011;44806;48.008;13.666;2024-01-30T04:56:50;148.90;;;18.27;;
59024;SDS011;44806;48.008;13.666;2024-01-30T04:59:17;63.53;;;14.98;;
59024;SDS011;44806;48.008;13.666;2024-01-30T05:01:44;42.83;;;17.17;;
59024;SDS011;44806;48.008;13.666;2024-01-30T05:04:11;83.75;;;15.75;;
59024;SDS011;44806;48.008;13.666;2024-01-30T05:06:38;38.08;;;13.75;;
59024;SDS011;44806;48.008;13.666;2024-01-30T05:09:04;27.83;;;12.88;;
59024;SDS011;44806;48.008;13.666;2024-01-30T05:11:32;28.20;;;13.13;;
59024;SDS011;44806;48.008;13.666;2024-01-30T05:14:05;66.45;;;19.25;;
59024;SDS011;44806;48.008;13.666;2024-01-30T05:16:32;49.50;;;15.52;;
59024;SDS011;44806;48.008;13.666;2024-01-30T05:18:59;36.17;;;17.30;;
59024;SDS011;44806;48.008;13.666;2024-01-30T05:21:26;110.85;;;16.85;;
59024;SDS011;44806;48.008;13.666;2024-01-30T05:23:53;33.65;;;15.38;;
59024;SDS011;44806;48.008;13.666;2024-01-30T05:26:20;80.05;;;16.42;;
59024;SDS011;44806;48.008;13.666;2024-01-30T05:28:47;32.65;;;15.55;;
59024;SDS011;44806;48.008;13.666;2024-01-30T05:31:16;39.65;;;16.17;;
59024;SDS011;44806;48.008;13.666;2024-01-30T05:33:43;29.33;;;11.02;;
59024;SDS011;44806;48.008;13.666;2024-01-30T05:36:11;94.40;;;20.38;;
59024;SDS011;44806;48.008;13.666;2024-01-30T05:38:38;44.08;;;15.30;;
59024;SDS011;44806;48.008;13.666;2024-01-30T05:41:05;36.58;;;17.83;;
59024;SDS011;44806;48.008;13.666;2024-01-30T05:43:32;32.38;;;17.30;;
59024;SDS011;44806;48.008;13.666;2024-01-30T05:45:59;31.63;;;14.45;;
59024;SDS011;44806;48.008;13.666;2024-01-30T05:48:27;36.97;;;14.95;;
59024;SDS011;44806;48.008;13.666;2024-01-30T05:50:54;30.48;;;15.73;;
59024;SDS011;44806;48.008;13.666;2024-01-30T05:53:21;24.52;;;11.93;;
59024;SDS011;44806;48.008;13.666;2024-01-30T05:55:48;30.40;;;13.45;;
59024;SDS011;44806;48.008;13.666;2024-01-30T05:58:15;39.92;;;16.38;;
59024;SDS011;44806;48.008;13.666;2024-01-30T06:00:42;28.65;;;13.10;;
59024;SDS011;44806;48.008;13.666;2024-01-30T06:03:09;33.90;;;15.65;;
59024;SDS011;44806;48.008;13.666;2024-01-30T06:05:37;37.67;;;16.17;;
59024;SDS011;44806;48.008;13.666;2024-01-30T06:08:05;35.90;;;15.07;;
59024;SDS011;44806;48.008;13.666;2024-01-30T06:10:32;30.80;;;14.88;;
59024;SDS011;44806;48.008;13.666;2024-01-30T06:12:59;34.00;;;14.52;;
59024;SDS011;44806;48.008;13.666;2024-01-30T06:15:26;50.85;;;15.75;;
59024;SDS011;44806;48.008;13.666;2024-01-30T06:17:54;39.80;;;16.90;;
59024;SDS011;44806;48.008;13.666;2024-01-30T06:20:21;39.97;;;16.85;;
59024;SDS011;44806;48.008;13.666;2024-01-30T06:22:50;31.05;;;11.98;;
59024;SDS011;44806;48.008;13.666;2024-01-30T06:25:16;44.83;;;13.48;;
59024;SDS011;44806;48.008;13.666;2024-01-30T06:27:43;44.38;;;15.23;;
59024;SDS011;44806;48.008;13.666;2024-01-30T06:30:11;42.90;;;13.50;;
59024;SDS011;44806;48.008;13.666;2024-01-30T06:32:38;35.20;;;12.75;;
59024;SDS011;44806;48.008;13.666;2024-01-30T06:35:05;29.85;;;14.00;;
59024;SDS011;44806;48.008;13.666;2024-01-30T06:37:33;30.85;;;14.32;;
59024;SDS011;44806;48.008;13.666;2024-01-30T06:40:01;36.72;;;16.02;;
59024;SDS011;44806;48.008;13.666;2024-01-30T06:42:29;40.15;;;16.27;;
59024;SDS011;44806;48.008;13.666;2024-01-30T06:44:56;31.42;;;16.23;;
59024;SDS011;44806;48.008;13.666;2024-01-30T06:47:23;33.35;;;13.98;;
59024;SDS011;44806;48.008;13.666;2024-01-30T06:49:50;94.75;;;17.15;;
59024;SDS011;44806;48.008;13.666;2024-01-30T06:52:17;69.90;;;17.60;;
59024;SDS011;44806;48.008;13.666;2024-01-30T06:54:44;37.47;;;16.77;;
59024;SDS011;44806;48.008;13.666;2024-01-30T06:57:12;32.40;;;14.25;;
59024;SDS011;44806;48.008;13.666;2024-01-30T06:59:39;40.72;;;13.43;;
59024;SDS011;44806;48.008;13.666;2024-01-30T07:02:08;29.23;;;14.68;;
59024;SDS011;44806;48.008;13.666;2024-01-30T07:04:35;83.57;;;17.98;;
59024;SDS011;44806;48.008;13.666;2024-01-30T07:07:04;87.68;;;16.27;;
59024;SDS011;44806;48.008;13.666;2024-01-30T07:09:36;60.88;;;15.63;;
59024;SDS011;44806;48.008;13.666;2024-01-30T07:12:03;72.38;;;18.13;;
59024;SDS011;44806;48.008;13.666;2024-01-30T07:14:32;31.30;;;13.20;;
59024;SDS011;44806;48.008;13.666;2024-01-30T07:16:59;62.22;;;14.68;;
59024;SDS011;44806;48.008;13.666;2024-01-30T07:19:26;39.10;;;16.30;;
59024;SDS011;44806;48.008;13.666;2024-01-30T07:21:53;134.80;;;20.75;;
59024;SDS011;44806;48.008;13.666;2024-01-30T07:24:20;83.60;;;16.50;;
59024;SDS011;44806;48.008;13.666;2024-01-30T07:26:47;73.93;;;15.52;;
59024;SDS011;44806;48.008;13.666;2024-01-30T07:29:14;24.98;;;10.60;;
59024;SDS011;44806;48.008;13.666;2024-01-30T07:31:42;30.17;;;13.98;;
59024;SDS011;44806;48.008;13.666;2024-01-30T07:34:09;49.08;;;17.00;;
59024;SDS011;44806;48.008;13.666;2024-01-30T07:36:36;40.20;;;15.65;;
59024;SDS011;44806;48.008;13.666;2024-01-30T07:39:03;61.92;;;16.35;;
59024;SDS011;44806;48.008;13.666;2024-01-30T07:41:30;59.10;;;17.70;;
59024;SDS011;44806;48.008;13.666;2024-01-30T07:43:57;48.10;;;17.90;;
59024;SDS011;44806;48.008;13.666;2024-01-30T07:46:24;32.55;;;14.38;;
59024;SDS011;44806;48.008;13.666;2024-01-30T07:48:52;36.10;;;15.45;;
59024;SDS011;44806;48.008;13.666;2024-01-30T07:51:20;43.08;;;15.90;;
59024;SDS011;44806;48.008;13.666;2024-01-30T07:53:47;51.47;;;15.23;;
59024;SDS011;44806;48.008;13.666;2024-01-30T07:56:14;59.53;;;14.98;;
59024;SDS011;44806;48.008;13.666;2024-01-30T07:58:42;28.35;;;12.93;;
59024;SDS011;44806;48.008;13.666;2024-01-30T08:01:09;33.85;;;15.30;;
59024;SDS011;44806;48.008;13.666;2024-01-30T08:03:36;33.03;;;15.10;;
59024;SDS011;44806;48.008;13.666;2024-01-30T08:06:07;32.25;;;16.17;;
59024;SDS011;44806;48.008;13.666;2024-01-30T08:08:34;30.90;;;14.73;;
59024;SDS011;44806;48.008;13.666;2024-01-30T08:11:01;41.47;;;13.68;;
59024;SDS011;44806;48.008;13.666;2024-01-30T08:13:27;38.17;;;16.40;;
59024;SDS011;44806;48.008;13.666;2024-01-30T08:15:54;33.45;;;15.77;;
59024;SDS011;44806;48.008;13.666;2024-01-30T08:18:21;30.02;;;15.55;;
59024;SDS011;44806;48.008;13.666;2024-01-30T08:20:48;28.67;;;14.10;;
59024;SDS011;44806;48.008;13.666;2024-01-30T08:23:16;31.33;;;15.48;;
59024;SDS011;44806;48.008;13.666;2024-01-30T08:25:43;27.40;;;13.38;;
59024;SDS011;44806;48.008;13.666;2024-01-30T08:28:10;31.17;;;14.13;;
59024;SDS011;44806;48.008;13.666;2024-01-30T08:30:37;32.22;;;13.85;;
59024;SDS011;44806;48.008;13.666;2024-01-30T08:33:05;30.33;;;14.80;;
59024;SDS011;44806;48.008;13.666;2024-01-30T08:35:32;29.38;;;12.65;;
59024;SDS011;44806;48.008;13.666;2024-01-30T08:37:59;32.60;;;14.70;;
59024;SDS011;44806;48.008;13.666;2024-01-30T08:40:27;28.00;;;14.93;;
59024;SDS011;44806;48.008;13.666;2024-01-30T08:42:54;28.67;;;15.95;;
59024;SDS011;44806;48.008;13.666;2024-01-30T08:45:21;30.00;;;16.13;;
59024;SDS011;44806;48.008;13.666;2024-01-30T08:47:48;30.70;;;14.95;;
59024;SDS011;44806;48.008;13.666;2024-01-30T08:50:15;31.05;;;14.60;;
59024;SDS011;44806;48.008;13.666;2024-01-30T08:52:42;32.17;;;14.77;;
59024;SDS011;44806;48.008;13.666;2024-01-30T08:55:09;24.00;;;12.15;;
59024;SDS011;44806;48.008;13.666;2024-01-30T08:57:38;31.50;;;16.25;;
59024;SDS011;44806;48.008;13.666;2024-01-30T09:00:05;29.42;;;14.95;;
59024;SDS011;44806;48.008;13.666;2024-01-30T09:02:34;35.63;;;16.33;;
59024;SDS011;44806;48.008;13.666;2024-01-30T09:05:01;27.13;;;13.75;;
59024;SDS011;44806;48.008;13.666;2024-01-30T09:07:28;30.45;;;14.73;;
59024;SDS011;44806;48.008;13.666;2024-01-30T09:09:55;30.70;;;15.65;;
59024;SDS011;44806;48.008;13.666;2024-01-30T09:12:22;32.78;;;17.50;;
59024;SDS011;44806;48.008;13.666;2024-01-30T09:14:50;24.45;;;12.98;;
59024;SDS011;44806;48.008;13.666;2024-01-30T09:17:17;27.25;;;13.15;;
59024;SDS011;44806;48.008;13.666;2024-01-30T09:19:45;30.38;;;15.50;;
59024;SDS011;44806;48.008;13.666;2024-01-30T09:22:12;25.75;;;13.10;;
59024;SDS011;44806;48.008;13.666;2024-01-30T09:24:39;30.90;;;14.30;;
59024;SDS011;44806;48.008;13.666;2024-01-30T09:27:06;31.00;;;14.07;;
59024;SDS011;44806;48.008;13.666;2024-01-30T09:29:33;34.00;;;15.70;;
59024;SDS011;44806;48.008;13.666;2024-01-30T09:32:03;26.50;;;14.95;;
59024;SDS011;44806;48.008;13.666;2024-01-30T09:34:31;25.20;;;13.07;;
59024;SDS011;44806;48.008;13.666;2024-01-30T09:36:58;32.53;;;14.50;;
59024;SDS011;44806;48.008;13.666;2024-01-30T09:39:25;27.65;;;13.70;;
59024;SDS011;44806;48.008;13.666;2024-01-30T09:41:54;28.60;;;15.32;;
59024;SDS011;44806;48.008;13.666;2024-01-30T09:44:35;30.33;;;14.35;;
59024;SDS011;44806;48.008;13.666;2024-01-30T09:47:05;29.85;;;12.57;;
59024;SDS011;44806;48.008;13.666;2024-01-30T09:49:32;28.55;;;16.20;;
59024;SDS011;44806;48.008;13.666;2024-01-30T09:52:00;27.70;;;13.63;;
59024;SDS011;44806;48.008;13.666;2024-01-30T09:54:28;29.23;;;14.25;;
59024;SDS011;44806;48.008;13.666;2024-01-30T09:56:56;31.00;;;15.05;;
59024;SDS011;44806;48.008;13.666;2024-01-30T09:59:23;32.10;;;14.85;;
59024;SDS011;44806;48.008;13.666;2024-01-30T10:01:50;28.63;;;14.38;;
59024;SDS011;44806;48.008;13.666;2024-01-30T10:04:19;32.17;;;16.45;;
59024;SDS011;44806;48.008;13.666;2024-01-30T10:06:46;28.27;;;15.43;;
59024;SDS011;44806;48.008;13.666;2024-01-30T10:09:14;33.60;;;16.45;;
59024;SDS011;44806;48.008;13.666;2024-01-30T10:11:41;37.70;;;17.20;;
59024;SDS011;44806;48.008;13.666;2024-01-30T10:14:08;33.72;;;16.75;;
59024;SDS011;44806;48.008;13.666;2024-01-30T10:16:35;36.53;;;17.55;;
59024;SDS011;44806;48.008;13.666;2024-01-30T10:19:02;33.83;;;17.80;;
59024;SDS011;44806;48.008;13.666;2024-01-30T10:21:30;32.75;;;15.80;;
59024;SDS011;44806;48.008;13.666;2024-01-30T10:23:57;32.38;;;17.70;;
59024;SDS011;44806;48.008;13.666;2024-01-30T10:26:25;33.97;;;16.83;;
59024;SDS011;44806;48.008;13.666;2024-01-30T10:28:54;34.35;;;17.65;;
59024;SDS011;44806;48.008;13.666;2024-01-30T10:31:21;31.02;;;15.52;;
59024;SDS011;44806;48.008;13.666;2024-01-30T10:33:49;37.00;;;18.33;;
59024;SDS011;44806;48.008;13.666;2024-01-30T10:36:16;31.73;;;16.00;;
59024;SDS011;44806;48.008;13.666;2024-01-30T10:38:46;29.95;;;15.68;;
59024;SDS011;44806;48.008;13.666;2024-01-30T10:41:17;29.58;;;13.95;;
59024;SDS011;44806;48.008;13.666;2024-01-30T10:43:50;36.30;;;18.02;;
59024;SDS011;44806;48.008;13.666;2024-01-30T10:46:25;37.55;;;18.90;;
59024;SDS011;44806;48.008;13.666;2024-01-30T10:48:58;31.17;;;16.90;;
59024;SDS011;44806;48.008;13.666;2024-01-30T10:51:25;36.28;;;18.48;;
59024;SDS011;44806;48.008;13.666;2024-01-30T10:53:55;36.25;;;18.08;;
59024;SDS011;44806;48.008;13.666;2024-01-30T10:56:22;30.83;;;14.43;;
59024;SDS011;44806;48.008;13.666;2024-01-30T10:58:50;34.47;;;16.33;;
59024;SDS011;44806;48.008;13.666;2024-01-30T11:01:17;34.08;;;15.95;;
59024;SDS011;44806;48.008;13.666;2024-01-30T11:03:47;32.25;;;15.98;;
59024;SDS011;44806;48.008;13.666;2024-01-30T11:06:15;37.03;;;17.10;;
59024;SDS011;44806;48.008;13.666;2024-01-30T11:08:43;30.88;;;15.50;;
59024;SDS011;44806;48.008;13.666;2024-01-30T11:11:11;37.15;;;19.08;;
59024;SDS011;44806;48.008;13.666;2024-01-30T11:13:38;34.97;;;16.75;;
59024;SDS011;44806;48.008;13.666;2024-01-30T11:16:08;34.00;;;17.15;;
59024;SDS011;44806;48.008;13.666;2024-01-30T11:18:38;37.22;;;18.13;;
59024;SDS011;44806;48.008;13.666;2024-01-30T11:21:05;31.88;;;16.10;;
59024;SDS011;44806;48.008;13.666;2024-01-30T11:23:33;36.15;;;16.60;;
59024;SDS011;44806;48.008;13.666;2024-01-30T11:26:01;34.03;;;16.08;;
59024;SDS011;44806;48.008;13.666;2024-01-30T11:28:33;38.58;;;17.42;;
59024;SDS011;44806;48.008;13.666;2024-01-30T11:31:03;36.20;;;18.90;;
59024;SDS011;44806;48.008;13.666;2024-01-30T11:33:32;34.97;;;18.58;;
59024;SDS011;44806;48.008;13.666;2024-01-30T11:35:59;38.55;;;18.27;;
59024;SDS011;44806;48.008;13.666;2024-01-30T11:38:28;34.35;;;17.05;;
59024;SDS011;44806;48.008;13.666;2024-01-30T11:40:55;34.53;;;17.42;;
59024;SDS011;44806;48.008;13.666;2024-01-30T11:43:23;34.05;;;18.45;;
59024;SDS011;44806;48.008;13.666;2024-01-30T11:45:51;38.35;;;18.77;;
59024;SDS011;44806;48.008;13.666;2024-01-30T11:48:18;34.30;;;17.65;;
59024;SDS011;44806;48.008;13.666;2024-01-30T11:50:45;31.38;;;14.57;;
59024;SDS011;44806;48.008;13.666;2024-01-30T11:53:13;33.92;;;17.08;;
59024;SDS011;44806;48.008;13.666;2024-01-30T11:55:40;32.85;;;17.08;;
59024;SDS011;44806;48.008;13.666;2024-01-30T11:58:07;28.98;;;14.13;;
59024;SDS011;44806;48.008;13.666;2024-01-30T12:00:33;28.73;;;15.85;;
59024;SDS011;44806;48.008;13.666;2024-01-30T12:03:02;35.10;;;18.40;;
59024;SDS011;44806;48.008;13.666;2024-01-30T12:05:31;35.63;;;18.05;;
59024;SDS011;44806;48.008;13.666;2024-01-30T12:07:58;32.80;;;17.13;;
59024;SDS011;44806;48.008;13.666;2024-01-30T12:10:25;31.38;;;16.30;;
59024;SDS011;44806;48.008;13.666;2024-01-30T12:12:52;30.98;;;15.63;;
59024;SDS011;44806;48.008;13.666;2024-01-30T12:15:21;33.33;;;17.58;;
59024;SDS011;44806;48.008;13.666;2024-01-30T12:17:48;33.85;;;17.33;;
59024;SDS011;44806;48.008;13.666;2024-01-30T12:20:17;33.08;;;16.52;;
59024;SDS011;44806;48.008;13.666;2024-01-30T12:22:46;30.83;;;14.93;;
59024;SDS011;44806;48.008;13.666;2024-01-30T12:25:15;28.55;;;15.73;;
59024;SDS011;44806;48.008;13.666;2024-01-30T12:27:42;30.60;;;16.35;;
59024;SDS011;44806;48.008;13.666;2024-01-30T12:30:11;29.75;;;14.88;;
59024;SDS011;44806;48.008;13.666;2024-01-30T12:32:39;30.25;;;15.27;;
59024;SDS011;44806;48.008;13.666;2024-01-30T12:35:08;29.90;;;13.95;;
59024;SDS011;44806;48.008;13.666;2024-01-30T12:37:38;32.22;;;14.77;;
59024;SDS011;44806;48.008;13.666;2024-01-30T12:40:05;28.50;;;14.75;;
59024;SDS011;44806;48.008;13.666;2024-01-30T12:42:34;27.98;;;14.93;;
59024;SDS011;44806;48.008;13.666;2024-01-30T12:45:01;27.85;;;13.02;;
59024;SDS011;44806;48.008;13.666;2024-01-30T12:47:29;24.75;;;14.10;;
59024;SDS011;44806;48.008;13.666;2024-01-30T12:49:57;34.75;;;14.75;;
59024;SDS011;44806;48.008;13.666;2024-01-30T12:52:24;27.15;;;13.85;;
59024;SDS011;44806;48.008;13.666;2024-01-30T12:54:52;30.38;;;15.25;;
59024;SDS011;44806;48.008;13.666;2024-01-30T12:57:19;29.77;;;15.57;;
59024;SDS011;44806;48.008;13.666;2024-01-30T12:59:46;33.75;;;16.90;;
59024;SDS011;44806;48.008;13.666;2024-01-30T13:02:13;27.77;;;15.48;;
59024;SDS011;44806;48.008;13.666;2024-01-30T13:04:42;32.20;;;15.60;;
59024;SDS011;44806;48.008;13.666;2024-01-30T13:07:09;28.98;;;15.02;;
59024;SDS011;44806;48.008;13.666;2024-01-30T13:09:36;30.75;;;16.25;;
59024;SDS011;44806;48.008;13.666;2024-01-30T13:12:04;34.15;;;16.48;;
59024;SDS011;44806;48.008;13.666;2024-01-30T13:14:32;33.22;;;15.43;;
59024;SDS011;44806;48.008;13.666;2024-01-30T13:16:58;39.75;;;18.88;;
59024;SDS011;44806;48.008;13.666;2024-01-30T13:19:25;31.25;;;15.85;;
59024;SDS011;44806;48.008;13.666;2024-01-30T13:21:53;31.30;;;15.23;;
59024;SDS011;44806;48.008;13.666;2024-01-30T13:24:20;24.88;;;13.75;;
59024;SDS011;44806;48.008;13.666;2024-01-30T13:26:47;27.23;;;14.27;;
59024;SDS011;44806;48.008;13.666;2024-01-30T13:29:16;28.98;;;14.88;;
59024;SDS011;44806;48.008;13.666;2024-01-30T13:31:45;27.95;;;14.90;;
59024;SDS011;44806;48.008;13.666;2024-01-30T13:34:12;28.70;;;14.30;;
59024;SDS011;44806;48.008;13.666;2024-01-30T13:36:39;28.58;;;13.43;;
59024;SDS011;44806;48.008;13.666;2024-01-30T13:39:07;25.00;;;12.82;;
59024;SDS011;44806;48.008;13.666;2024-01-30T13:41:34;27.05;;;13.40;;
59024;SDS011;44806;48.008;13.666;2024-01-30T13:44:01;26.90;;;14.20;;
59024;SDS011;44806;48.008;13.666;2024-01-30T13:46:30;25.88;;;13.43;;
59024;SDS011;44806;48.008;13.666;2024-01-30T13:48:57;29.98;;;14.77;;
59024;SDS011;44806;48.008;13.666;2024-01-30T13:51:24;33.72;;;14.75;;
59024;SDS011;44806;48.008;13.666;2024-01-30T13:53:51;27.80;;;15.02;;
59024;SDS011;44806;48.008;13.666;2024-01-30T13:56:17;26.88;;;14.18;;
59024;SDS011;44806;48.008;13.666;2024-01-30T13:58:45;26.65;;;13.05;;
59024;SDS011;44806;48.008;13.666;2024-01-30T14:01:12;25.85;;;13.32;;
59024;SDS011;44806;48.008;13.666;2024-01-30T14:03:40;26.48;;;15.10;;
59024;SDS011;44806;48.008;13.666;2024-01-30T14:06:07;26.10;;;14.05;;
59024;SDS011;44806;48.008;13.666;2024-01-30T14:08:34;30.85;;;14.30;;
59024;SDS011;44806;48.008;13.666;2024-01-30T14:11:01;27.95;;;14.88;;
59024;SDS011;44806;48.008;13.666;2024-01-30T14:13:28;27.20;;;14.13;;